PWSweather.com
Personal Weather Stations
Station Observations
J24K28P63
Vysocina, PocatkyCZ 39464

VysocinaPocatkyCZ 39464

Lat: 49.2594238, Lon: 15.2331769

Elevation: 2011

Station Type: Vantage Pro2+

http://meteo-jirkalina.com

High Low Average
Temperature 72.5°F22.5°C 46.9°F8.3°C 59.7°F15.4°C
Dew Point 54.4°F12.4°C 38.9°F3.8°C 47.1°F8.4°C
Winds 10.0 mph 16.1 kmh Calm Calm 3.0 mph SE4.8 kmh SE
Wind Gusts 14.0 mph22.5 kmh -- 6.0 mph9.7 kmh
Humidity 97% 43% 65%
Pressure 29.88 in1011.9 mb 29.75 in1007.5 mb -
Precipitation 0.26 in6.6 mm - -
Hour Temp Dew Point Humidity Winds Wind Gusts Pressure Precip Precip Rate Daily Precip Total
12:00 AM 52.0°F11.1°C 39.4°F4.1°C 62% 4.1 mph ENE6.6 kmh ENE 5.0 mph8.0 kmh 29.79 in1008.8 mb - 0.00 in0.0 mm 0.00 in0.0 mm
12:30 AM 51.9°F11.1°C 39.3°F4.1°C 62% 3.7 mph NE6.0 kmh NE 5.0 mph8.0 kmh 29.79 in1008.8 mb - 0.00 in0.0 mm 0.00 in0.0 mm
01:00 AM 51.7°F10.9°C 39.0°F3.9°C 62% 7.2 mph NE11.6 kmh NE 7.0 mph11.3 kmh 29.78 in1008.5 mb - 0.00 in0.0 mm 0.00 in0.0 mm
01:30 AM 51.1°F10.6°C 38.9°F3.8°C 63% 4.0 mph NE6.4 kmh NE 8.0 mph12.9 kmh 29.77 in1008.1 mb - 0.00 in0.0 mm 0.00 in0.0 mm
02:00 AM 50.7°F10.4°C 39.7°F4.3°C 66% 4.6 mph NE7.4 kmh NE 9.0 mph14.5 kmh 29.77 in1008.1 mb - 0.00 in0.0 mm 0.00 in0.0 mm
02:30 AM 50.7°F10.4°C 40.5°F4.7°C 68% 7.0 mph NE11.3 kmh NE 7.0 mph11.3 kmh 29.76 in1007.8 mb - 0.00 in0.0 mm 0.00 in0.0 mm
03:00 AM 50.5°F10.3°C 40.3°F4.6°C 68% 7.4 mph NE11.9 kmh NE 10.0 mph16.1 kmh 29.76 in1007.8 mb - 0.00 in0.0 mm 0.00 in0.0 mm
03:30 AM 50.1°F10.1°C 40.7°F4.8°C 70% 4.6 mph NE7.4 kmh NE 8.0 mph12.9 kmh 29.75 in1007.5 mb - 0.00 in0.0 mm 0.00 in0.0 mm
04:00 AM 49.5°F9.7°C 41.2°F5.1°C 73% 2.8 mph NE4.5 kmh NE 5.0 mph8.0 kmh 29.75 in1007.5 mb - 0.00 in0.0 mm 0.00 in0.0 mm
04:30 AM 48.6°F9.2°C 41.7°F5.4°C 77% 4.2 mph NE6.8 kmh NE 7.0 mph11.3 kmh 29.75 in1007.5 mb - 0.00 in0.0 mm 0.00 in0.0 mm
04:40 AM 46.9°F8.3°C 42.0°F5.6°C 83% Calm Calm -- 29.87 in1011.5 mb - 0.00 in0.0 mm 0.00 in0.0 mm
04:50 AM 47.4°F8.6°C 42.8°F6.0°C 84% Calm Calm -- 29.87 in1011.5 mb - 0.00 in0.0 mm 0.00 in0.0 mm
05:00 AM 48.7°F9.3°C 43.5°F6.4°C 82% Calm Calm 1.0 mph1.6 kmh 29.87 in1011.5 mb - 0.00 in0.0 mm 0.00 in0.0 mm
05:10 AM 49.1°F9.5°C 43.8°F6.6°C 82% Calm Calm -- 29.87 in1011.5 mb - 0.00 in0.0 mm 0.00 in0.0 mm
05:20 AM 49.0°F9.4°C 43.7°F6.5°C 82% Calm Calm -- 29.88 in1011.9 mb - 0.00 in0.0 mm 0.00 in0.0 mm
05:30 AM 50.1°F10.1°C 44.8°F7.1°C 82% Calm Calm -- 29.88 in1011.9 mb - 0.00 in0.0 mm 0.00 in0.0 mm
05:40 AM 50.8°F10.4°C 45.5°F7.5°C 82% Calm Calm -- 29.88 in1011.9 mb - 0.00 in0.0 mm 0.00 in0.0 mm
05:50 AM 51.7°F10.9°C 46.1°F7.8°C 81% Calm Calm 1.0 mph1.6 kmh 29.88 in1011.9 mb - 0.00 in0.0 mm 0.00 in0.0 mm
06:00 AM 54.7°F12.6°C 47.0°F8.3°C 75% 2.0 mph ENE3.2 kmh ENE 3.0 mph4.8 kmh 29.88 in1011.9 mb - 0.00 in0.0 mm 0.00 in0.0 mm
06:10 AM 56.8°F13.8°C 46.7°F8.2°C 69% 1.0 mph ENE1.6 kmh ENE 3.0 mph4.8 kmh 29.88 in1011.9 mb - 0.00 in0.0 mm 0.00 in0.0 mm
06:20 AM 58.1°F14.5°C 47.6°F8.7°C 68% 2.0 mph NE3.2 kmh NE 3.0 mph4.8 kmh 29.88 in1011.9 mb - 0.00 in0.0 mm 0.00 in0.0 mm
06:30 AM 59.0°F15.0°C 47.7°F8.7°C 66% 2.0 mph NE3.2 kmh NE 3.0 mph4.8 kmh 29.88 in1011.9 mb - 0.00 in0.0 mm 0.00 in0.0 mm
06:40 AM 60.2°F15.7°C 48.0°F8.9°C 64% Calm Calm 2.0 mph3.2 kmh 29.88 in1011.9 mb - 0.00 in0.0 mm 0.00 in0.0 mm
06:50 AM 60.7°F15.9°C 48.4°F9.1°C 64% 1.0 mph NE1.6 kmh NE 2.0 mph3.2 kmh 29.88 in1011.9 mb - 0.00 in0.0 mm 0.00 in0.0 mm
07:00 AM 61.5°F16.4°C 49.2°F9.6°C 64% Calm Calm 1.0 mph1.6 kmh 29.88 in1011.9 mb - 0.00 in0.0 mm 0.00 in0.0 mm
07:10 AM 63.8°F17.7°C 49.2°F9.6°C 59% 1.0 mph NE1.6 kmh NE 3.0 mph4.8 kmh 29.88 in1011.9 mb - 0.00 in0.0 mm 0.00 in0.0 mm
07:20 AM 65.1°F18.4°C 49.4°F9.7°C 57% 2.0 mph NNE3.2 kmh NNE 3.0 mph4.8 kmh 29.88 in1011.9 mb - 0.00 in0.0 mm 0.00 in0.0 mm
07:30 AM 66.1°F18.9°C 49.5°F9.7°C 55% 2.0 mph NNE3.2 kmh NNE 3.0 mph4.8 kmh 29.87 in1011.5 mb - 0.00 in0.0 mm 0.00 in0.0 mm
07:40 AM 68.0°F20.0°C 48.1°F8.9°C 49% 5.0 mph NE8.0 kmh NE 7.0 mph11.3 kmh 29.87 in1011.5 mb - 0.00 in0.0 mm 0.00 in0.0 mm
07:50 AM 67.1°F19.5°C 47.3°F8.5°C 49% 6.0 mph NE9.7 kmh NE 10.0 mph16.1 kmh 29.87 in1011.5 mb - 0.00 in0.0 mm 0.00 in0.0 mm
08:00 AM 66.5°F19.2°C 48.3°F9.1°C 52% 5.0 mph NE8.0 kmh NE 9.0 mph14.5 kmh 29.88 in1011.9 mb - 0.00 in0.0 mm 0.00 in0.0 mm
08:10 AM 65.8°F18.8°C 47.6°F8.7°C 52% 3.0 mph ENE4.8 kmh ENE 7.0 mph11.3 kmh 29.87 in1011.5 mb - 0.00 in0.0 mm 0.00 in0.0 mm
08:20 AM 67.3°F19.6°C 47.5°F8.6°C 49% 6.0 mph NE9.7 kmh NE 10.0 mph16.1 kmh 29.87 in1011.5 mb - 0.00 in0.0 mm 0.00 in0.0 mm
08:30 AM 67.6°F19.8°C 47.7°F8.7°C 49% 5.0 mph NE8.0 kmh NE 8.0 mph12.9 kmh 29.87 in1011.5 mb - 0.00 in0.0 mm 0.00 in0.0 mm
08:40 AM 68.2°F20.1°C 47.7°F8.7°C 48% 7.0 mph NE11.3 kmh NE 12.0 mph19.3 kmh 29.87 in1011.5 mb - 0.00 in0.0 mm 0.00 in0.0 mm
08:50 AM 68.1°F20.1°C 47.1°F8.4°C 47% 10.0 mph ENE16.1 kmh ENE 14.0 mph22.5 kmh 29.87 in1011.5 mb - 0.00 in0.0 mm 0.00 in0.0 mm
09:00 AM 68.8°F20.4°C 48.3°F9.1°C 48% 8.0 mph ENE12.9 kmh ENE 13.0 mph20.9 kmh 29.87 in1011.5 mb - 0.00 in0.0 mm 0.00 in0.0 mm
09:10 AM 69.6°F20.9°C 48.5°F9.2°C 47% 7.0 mph NE11.3 kmh NE 9.0 mph14.5 kmh 29.87 in1011.5 mb - 0.00 in0.0 mm 0.00 in0.0 mm
09:20 AM 70.7°F21.5°C 50.0°F10.0°C 48% 7.0 mph E11.3 kmh E 9.0 mph14.5 kmh 29.86 in1011.2 mb - 0.00 in0.0 mm 0.00 in0.0 mm
09:30 AM 69.3°F20.7°C 46.5°F8.1°C 44% 5.0 mph NE8.0 kmh NE 9.0 mph14.5 kmh 29.86 in1011.2 mb - 0.00 in0.0 mm 0.00 in0.0 mm
09:40 AM 67.6°F19.8°C 46.6°F8.1°C 47% 8.0 mph NE12.9 kmh NE 12.0 mph19.3 kmh 29.87 in1011.5 mb - 0.00 in0.0 mm 0.00 in0.0 mm
09:50 AM 69.1°F20.6°C 49.1°F9.5°C 49% 6.0 mph NE9.7 kmh NE 13.0 mph20.9 kmh 29.86 in1011.2 mb - 0.00 in0.0 mm 0.00 in0.0 mm
10:00 AM 68.2°F20.1°C 48.8°F9.3°C 50% 6.0 mph NE9.7 kmh NE 9.0 mph14.5 kmh 29.86 in1011.2 mb - 0.00 in0.0 mm 0.00 in0.0 mm
10:10 AM 69.1°F20.6°C 48.6°F9.2°C 48% 6.0 mph E9.7 kmh E 9.0 mph14.5 kmh 29.86 in1011.2 mb - 0.00 in0.0 mm 0.00 in0.0 mm
10:30 AM 65.9°F18.8°C 46.7°F8.2°C 50% 5.0 mph NE8.0 kmh NE 6.0 mph9.7 kmh 29.86 in1011.2 mb - 0.00 in0.0 mm 0.00 in0.0 mm
10:40 AM 65.6°F18.7°C 47.5°F8.6°C 52% 3.0 mph NE4.8 kmh NE 5.0 mph8.0 kmh 29.86 in1011.2 mb - 0.00 in0.0 mm 0.00 in0.0 mm
10:50 AM 65.9°F18.8°C 47.8°F8.8°C 52% 2.0 mph NNE3.2 kmh NNE 5.0 mph8.0 kmh 29.86 in1011.2 mb - 0.00 in0.0 mm 0.00 in0.0 mm
11:00 AM 67.0°F19.4°C 48.8°F9.3°C 52% 5.0 mph NNE8.0 kmh NNE 8.0 mph12.9 kmh 29.86 in1011.2 mb - 0.00 in0.0 mm 0.00 in0.0 mm
11:10 AM 65.9°F18.8°C 48.3°F9.1°C 53% 3.0 mph NE4.8 kmh NE 6.0 mph9.7 kmh 29.86 in1011.2 mb - 0.00 in0.0 mm 0.00 in0.0 mm
11:20 AM 64.6°F18.1°C 50.4°F10.2°C 60% 8.0 mph NNE12.9 kmh NNE 12.0 mph19.3 kmh 29.87 in1011.5 mb - 0.00 in0.0 mm 0.00 in0.0 mm
11:30 AM 61.3°F16.3°C 52.6°F11.4°C 73% 1.0 mph NE1.6 kmh NE 3.0 mph4.8 kmh 29.86 in1011.2 mb - 0.00 in0.0 mm 0.00 in0.0 mm
11:40 AM 62.0°F16.7°C 50.9°F10.5°C 67% Calm Calm 3.0 mph4.8 kmh 29.85 in1010.8 mb - 0.00 in0.0 mm 0.00 in0.0 mm
11:50 AM 63.9°F17.7°C 51.5°F10.8°C 64% Calm Calm 1.0 mph1.6 kmh 29.85 in1010.8 mb - 0.00 in0.0 mm 0.00 in0.0 mm
12:00 PM 65.9°F18.8°C 50.7°F10.4°C 58% 5.0 mph NE8.0 kmh NE 6.0 mph9.7 kmh 29.85 in1010.8 mb - 0.00 in0.0 mm 0.00 in0.0 mm
12:10 PM 65.9°F18.8°C 50.3°F10.2°C 57% 2.0 mph NE3.2 kmh NE 3.0 mph4.8 kmh 29.85 in1010.8 mb - 0.00 in0.0 mm 0.00 in0.0 mm
12:20 PM 66.8°F19.3°C 51.0°F10.6°C 57% Calm Calm 5.0 mph8.0 kmh 29.84 in1010.5 mb - 0.00 in0.0 mm 0.00 in0.0 mm
12:30 PM 69.3°F20.7°C 49.8°F9.9°C 50% 1.0 mph E1.6 kmh E 3.0 mph4.8 kmh 29.84 in1010.5 mb - 0.00 in0.0 mm 0.00 in0.0 mm
12:40 PM 69.2°F20.7°C 49.2°F9.6°C 49% 1.0 mph ESE1.6 kmh ESE 1.0 mph1.6 kmh 29.84 in1010.5 mb - 0.00 in0.0 mm 0.00 in0.0 mm
12:50 PM 69.3°F20.7°C 49.3°F9.6°C 49% 2.0 mph E3.2 kmh E 7.0 mph11.3 kmh 29.84 in1010.5 mb - 0.00 in0.0 mm 0.00 in0.0 mm
01:00 PM 70.1°F21.2°C 47.8°F8.8°C 45% 1.0 mph ENE1.6 kmh ENE 6.0 mph9.7 kmh 29.83 in1010.2 mb - 0.00 in0.0 mm 0.00 in0.0 mm
01:10 PM 70.9°F21.6°C 49.7°F9.8°C 47% 3.0 mph NNW4.8 kmh NNW 5.0 mph8.0 kmh 29.84 in1010.5 mb - 0.00 in0.0 mm 0.00 in0.0 mm
01:20 PM 67.5°F19.7°C 47.7°F8.7°C 49% 2.0 mph NNW3.2 kmh NNW 5.0 mph8.0 kmh 29.83 in1010.2 mb - 0.00 in0.0 mm 0.00 in0.0 mm
01:30 PM 69.5°F20.8°C 48.9°F9.4°C 48% 5.0 mph NNW8.0 kmh NNW 10.0 mph16.1 kmh 29.82 in1009.8 mb - 0.00 in0.0 mm 0.00 in0.0 mm
01:40 PM 72.3°F22.4°C 49.7°F9.8°C 45% 2.0 mph NW3.2 kmh NW 10.0 mph16.1 kmh 29.82 in1009.8 mb - 0.00 in0.0 mm 0.00 in0.0 mm
01:50 PM 71.1°F21.7°C 48.7°F9.3°C 45% 5.0 mph NW8.0 kmh NW 6.0 mph9.7 kmh 29.82 in1009.8 mb - 0.00 in0.0 mm 0.00 in0.0 mm
02:00 PM 72.5°F22.5°C 49.4°F9.7°C 44% 3.0 mph N4.8 kmh N 8.0 mph12.9 kmh 29.81 in1009.5 mb - 0.00 in0.0 mm 0.00 in0.0 mm
02:10 PM 71.7°F22.1°C 48.6°F9.2°C 44% 2.0 mph NW3.2 kmh NW 6.0 mph9.7 kmh 29.81 in1009.5 mb - 0.00 in0.0 mm 0.00 in0.0 mm
02:20 PM 70.1°F21.2°C 46.6°F8.1°C 43% 5.0 mph NNW8.0 kmh NNW 6.0 mph9.7 kmh 29.81 in1009.5 mb - 0.00 in0.0 mm 0.00 in0.0 mm
02:30 PM 68.9°F20.5°C 48.4°F9.1°C 48% 3.0 mph NW4.8 kmh NW 8.0 mph12.9 kmh 29.81 in1009.5 mb - 0.00 in0.0 mm 0.00 in0.0 mm
02:40 PM 67.4°F19.7°C 49.2°F9.6°C 52% 8.0 mph SSE12.9 kmh SSE 12.0 mph19.3 kmh 29.82 in1009.8 mb - 0.00 in0.0 mm 0.00 in0.0 mm
02:50 PM 65.4°F18.6°C 48.8°F9.3°C 55% 3.0 mph S4.8 kmh S 7.0 mph11.3 kmh 29.81 in1009.5 mb - 0.00 in0.0 mm 0.00 in0.0 mm
03:00 PM 64.1°F17.8°C 49.4°F9.7°C 59% 2.0 mph SE3.2 kmh SE 8.0 mph12.9 kmh 29.82 in1009.8 mb - 0.00 in0.0 mm 0.00 in0.0 mm
03:10 PM 61.8°F16.6°C 52.0°F11.1°C 70% 3.0 mph NNW4.8 kmh NNW 8.0 mph12.9 kmh 29.83 in1010.2 mb - 0.02 in0.5 mm 0.03 in0.8 mm
03:20 PM 58.1°F14.5°C 52.0°F11.1°C 80% 3.0 mph NNW4.8 kmh NNW 6.0 mph9.7 kmh 29.82 in1009.8 mb - 0.02 in0.5 mm 0.04 in1.0 mm
03:30 PM 56.8°F13.8°C 52.0°F11.1°C 84% 5.0 mph NNW8.0 kmh NNW 8.0 mph12.9 kmh 29.82 in1009.8 mb - 0.00 in0.0 mm 0.04 in1.0 mm
03:40 PM 56.5°F13.6°C 52.0°F11.1°C 85% 3.0 mph NW4.8 kmh NW 5.0 mph8.0 kmh 29.83 in1010.2 mb - 0.00 in0.0 mm 0.04 in1.0 mm
03:50 PM 56.9°F13.8°C 53.1°F11.7°C 87% 5.0 mph WNW8.0 kmh WNW 8.0 mph12.9 kmh 29.83 in1010.2 mb - 0.00 in0.0 mm 0.04 in1.0 mm
04:00 PM 57.1°F13.9°C 53.5°F11.9°C 88% 3.0 mph WNW4.8 kmh WNW 7.0 mph11.3 kmh 29.82 in1009.8 mb - 0.00 in0.0 mm 0.04 in1.0 mm
04:10 PM 57.4°F14.1°C 54.2°F12.3°C 89% 5.0 mph W8.0 kmh W 6.0 mph9.7 kmh 29.82 in1009.8 mb - 0.00 in0.0 mm 0.04 in1.0 mm
04:20 PM 57.6°F14.2°C 54.3°F12.4°C 89% 5.0 mph WNW8.0 kmh WNW 7.0 mph11.3 kmh 29.82 in1009.8 mb - 0.00 in0.0 mm 0.04 in1.0 mm
04:30 PM 57.7°F14.3°C 53.5°F11.9°C 86% 5.0 mph NW8.0 kmh NW 6.0 mph9.7 kmh 29.82 in1009.8 mb - 0.00 in0.0 mm 0.04 in1.0 mm
04:40 PM 59.6°F15.3°C 54.1°F12.3°C 82% 8.0 mph WNW12.9 kmh WNW 9.0 mph14.5 kmh 29.81 in1009.5 mb - 0.00 in0.0 mm 0.04 in1.0 mm
04:50 PM 59.2°F15.1°C 53.0°F11.7°C 80% 6.0 mph WNW9.7 kmh WNW 9.0 mph14.5 kmh 29.81 in1009.5 mb - 0.00 in0.0 mm 0.04 in1.0 mm
05:00 PM 61.3°F16.3°C 54.4°F12.4°C 78% 2.0 mph WNW3.2 kmh WNW 5.0 mph8.0 kmh 29.81 in1009.5 mb - 0.00 in0.0 mm 0.04 in1.0 mm
05:10 PM 63.7°F17.6°C 53.8°F12.1°C 70% 3.0 mph WNW4.8 kmh WNW 3.0 mph4.8 kmh 29.80 in1009.1 mb - 0.00 in0.0 mm 0.04 in1.0 mm
05:20 PM 63.7°F17.6°C 53.7°F12.1°C 70% 5.0 mph W8.0 kmh W 7.0 mph11.3 kmh 29.81 in1009.5 mb - 0.00 in0.0 mm 0.04 in1.0 mm
05:30 PM 64.1°F17.8°C 53.7°F12.1°C 69% 5.0 mph W8.0 kmh W 7.0 mph11.3 kmh 29.80 in1009.1 mb - 0.00 in0.0 mm 0.04 in1.0 mm
05:40 PM 65.0°F18.3°C 53.4°F11.9°C 66% 6.0 mph WNW9.7 kmh WNW 9.0 mph14.5 kmh 29.80 in1009.1 mb - 0.00 in0.0 mm 0.04 in1.0 mm
05:50 PM 64.7°F18.2°C 51.8°F11.0°C 63% 5.0 mph N8.0 kmh N 9.0 mph14.5 kmh 29.80 in1009.1 mb - 0.00 in0.0 mm 0.04 in1.0 mm
06:00 PM 63.9°F17.7°C 52.3°F11.3°C 66% 3.0 mph NNW4.8 kmh NNW 8.0 mph12.9 kmh 29.80 in1009.1 mb - 0.00 in0.0 mm 0.04 in1.0 mm
06:10 PM 62.9°F17.2°C 52.2°F11.2°C 68% 1.0 mph NNW1.6 kmh NNW 8.0 mph12.9 kmh 29.80 in1009.1 mb - 0.00 in0.0 mm 0.04 in1.0 mm
06:20 PM 62.6°F17.0°C 52.7°F11.5°C 70% 2.0 mph N3.2 kmh N 5.0 mph8.0 kmh 29.80 in1009.1 mb - 0.00 in0.0 mm 0.04 in1.0 mm
06:30 PM 62.6°F17.0°C 52.7°F11.5°C 70% 3.0 mph NNW4.8 kmh NNW 6.0 mph9.7 kmh 29.80 in1009.1 mb - 0.00 in0.0 mm 0.04 in1.0 mm
06:40 PM 62.4°F16.9°C 51.3°F10.7°C 67% 2.0 mph NE3.2 kmh NE 5.0 mph8.0 kmh 29.80 in1009.1 mb - 0.00 in0.0 mm 0.04 in1.0 mm
06:50 PM 61.4°F16.3°C 53.0°F11.7°C 74% 1.0 mph N1.6 kmh N 3.0 mph4.8 kmh 29.80 in1009.1 mb - 0.01 in0.3 mm 0.05 in1.3 mm
07:00 PM 58.4°F14.7°C 52.6°F11.4°C 81% 3.0 mph NE4.8 kmh NE 5.0 mph8.0 kmh 29.80 in1009.1 mb - 0.01 in0.3 mm 0.06 in1.5 mm
07:10 PM 56.7°F13.7°C 52.6°F11.4°C 86% 5.0 mph NE8.0 kmh NE 10.0 mph16.1 kmh 29.81 in1009.5 mb - 0.02 in0.5 mm 0.07 in1.8 mm
07:30 PM 52.2°F11.2°C 45.2°F7.3°C 77% Calm Calm -- 29.77 in1008.1 mb - 0.00 in0.0 mm 0.08 in2.0 mm
08:00 PM 52.3°F11.3°C 48.2°F9.0°C 86% 0.3 mph S0.5 kmh S -- 29.78 in1008.5 mb - 0.00 in0.0 mm 0.08 in2.0 mm
08:30 PM 51.0°F10.6°C 48.5°F9.2°C 91% Calm Calm -- 29.79 in1008.8 mb - 0.15 in3.8 mm 0.15 in3.8 mm
09:00 PM 49.8°F9.9°C 48.1°F8.9°C 94% Calm Calm -- 29.79 in1008.8 mb - 0.04 in1.0 mm 0.19 in4.8 mm
09:30 PM 49.6°F9.8°C 48.5°F9.2°C 96% 0.6 mph S1.0 kmh S 3.0 mph4.8 kmh 29.78 in1008.5 mb - 0.02 in0.5 mm 0.20 in5.1 mm
10:00 PM 49.2°F9.6°C 48.1°F8.9°C 96% Calm Calm -- 29.77 in1008.1 mb - 0.04 in1.0 mm 0.24 in6.1 mm
10:30 PM 49.4°F9.7°C 48.6°F9.2°C 97% Calm Calm -- 29.78 in1008.5 mb - 0.02 in0.5 mm 0.26 in6.6 mm
11:00 PM 48.9°F9.4°C 48.1°F8.9°C 97% Calm Calm -- 29.78 in1008.5 mb - 0.01 in0.3 mm 0.36 in9.1 mm
11:30 PM 48.8°F9.3°C 48.0°F8.9°C 97% Calm Calm -- 29.78 in1008.5 mb - 0.01 in0.3 mm 0.01 in0.3 mm